Allen, Indiana
Current Conditions -  °F | °C
As of 8:15 PM on Monday 22 Dec 2014 (Local Time) from KGWB Reporting Station
Drizzle Drizzle  
Wind Chill: 28°   Ceiling: 4600
Heat Index: 36°   Visibility: 4mi
Dew Point: 32°   Wind: 10mph
Humidity: 87%   Direction: 80°E
Pressure: 29.8"   Gusts: NA
Location:  41.4608°N, 85.2531°W
Report Text: KGWB 230115Z AUTO 08009KT 4SM DZ BKN046 BKN055 OVC075 02/00 A2980 RMK AO2
Loading
Personal Weather Stations






























Interactive Weather Map New forecast layout! Learn more

10-Day Weather Forecast

Advertisements
Track Severe Weather on mobile